createdAt,value
2019-05-20T00:00:55.097Z,979.24
2019-05-20T00:01:55.031Z,979.25
2019-05-20T00:02:54.943Z,979.26
2019-05-20T00:03:54.831Z,979.26
2019-05-20T00:04:54.761Z,979.29
2019-05-20T00:05:54.690Z,979.25
2019-05-20T00:06:54.579Z,979.27
2019-05-20T00:07:54.508Z,979.25
2019-05-20T00:08:54.407Z,979.21
2019-05-20T00:09:54.333Z,979.20
2019-05-20T00:10:54.226Z,979.22
2019-05-20T00:11:54.140Z,979.19
2019-05-20T00:12:54.083Z,979.19
2019-05-20T00:13:54.105Z,979.17
2019-05-20T00:14:53.892Z,979.20
2019-05-20T00:15:53.790Z,979.15
2019-05-20T00:16:53.756Z,979.19
2019-05-20T00:17:53.623Z,979.15
2019-05-20T00:18:53.549Z,979.12
2019-05-20T00:19:54.374Z,979.11
2019-05-20T00:20:53.386Z,979.11
2019-05-20T00:21:53.290Z,979.11
2019-05-20T00:22:53.201Z,979.11
2019-05-20T00:23:53.134Z,979.13
2019-05-20T00:24:53.016Z,979.11
2019-05-20T00:25:52.918Z,979.12
2019-05-20T00:26:52.846Z,979.09
2019-05-20T00:27:52.740Z,979.07
2019-05-20T00:28:52.671Z,979.10
2019-05-20T00:29:52.579Z,979.04
2019-05-20T00:30:52.495Z,979.06
2019-05-20T00:31:52.481Z,979.08
2019-05-20T00:32:52.314Z,979.07
2019-05-20T00:33:52.224Z,979.09
2019-05-20T00:34:52.131Z,979.09
2019-05-20T00:35:52.077Z,979.10
2019-05-20T00:36:51.974Z,979.13
2019-05-20T00:37:51.871Z,979.09
2019-05-20T00:38:51.885Z,979.09
2019-05-20T00:39:51.706Z,979.08
2019-05-20T00:40:51.645Z,979.11
2019-05-20T00:41:51.533Z,979.13
2019-05-20T00:42:51.453Z,979.12
2019-05-20T00:43:51.399Z,979.16
2019-05-20T00:44:51.261Z,979.16
2019-05-20T00:45:51.191Z,979.16
2019-05-20T00:46:51.093Z,979.15
2019-05-20T00:47:51.004Z,979.11
2019-05-20T00:48:50.911Z,979.14
2019-05-20T00:49:50.834Z,979.19
2019-05-20T00:50:50.739Z,979.17
2019-05-20T00:51:50.653Z,979.20
2019-05-20T00:52:50.577Z,979.15
2019-05-20T00:53:50.491Z,979.21
2019-05-20T00:54:51.385Z,979.19
2019-05-20T00:55:50.325Z,979.16
2019-05-20T00:56:50.996Z,979.15
2019-05-20T00:57:50.141Z,979.17
2019-05-20T00:58:50.037Z,979.19
2019-05-20T00:59:49.968Z,979.19
2019-05-20T01:00:49.969Z,979.21
2019-05-20T01:01:49.804Z,979.22
2019-05-20T01:02:56.763Z,979.25
2019-05-20T01:03:49.598Z,979.20
2019-05-20T01:04:49.533Z,979.26
2019-05-20T01:05:49.437Z,979.24
2019-05-20T01:06:49.366Z,979.23
2019-05-20T01:07:49.292Z,979.27
2019-05-20T01:08:49.166Z,979.26
2019-05-20T01:09:49.087Z,979.24
2019-05-20T01:10:48.986Z,979.23
2019-05-20T01:11:48.905Z,979.21
2019-05-20T01:12:48.844Z,979.18
2019-05-20T01:13:48.730Z,979.22
2019-05-20T01:14:48.648Z,979.21
2019-05-20T01:15:48.594Z,979.19
2019-05-20T01:16:48.488Z,979.23
2019-05-20T01:17:48.384Z,979.19
2019-05-20T01:18:48.364Z,979.22
2019-05-20T01:19:48.200Z,979.17
2019-05-20T01:20:48.134Z,979.24
2019-05-20T01:21:48.037Z,979.26
2019-05-20T01:22:47.954Z,979.26
2019-05-20T01:23:47.872Z,979.23
2019-05-20T01:24:47.796Z,979.23
2019-05-20T01:25:47.686Z,979.22
2019-05-20T01:26:47.594Z,979.23
2019-05-20T01:27:47.503Z,979.24
2019-05-20T01:28:47.430Z,979.25
2019-05-20T01:29:47.354Z,979.23
2019-05-20T01:30:47.241Z,979.19
2019-05-20T01:31:47.157Z,979.19
2019-05-20T01:32:47.087Z,979.16
2019-05-20T01:33:46.994Z,979.17
2019-05-20T01:34:46.933Z,979.14
2019-05-20T01:35:46.822Z,979.15
2019-05-20T01:36:46.723Z,979.15
2019-05-20T01:37:46.636Z,979.11
2019-05-20T01:38:46.565Z,979.09
2019-05-20T01:39:46.463Z,979.10
2019-05-20T01:40:46.378Z,979.09
2019-05-20T01:41:46.298Z,979.10
2019-05-20T01:42:46.202Z,979.09
2019-05-20T01:43:46.132Z,979.08
2019-05-20T01:44:46.014Z,979.07
2019-05-20T01:45:45.963Z,979.08
2019-05-20T01:46:45.838Z,979.11
2019-05-20T01:47:45.758Z,979.11
2019-05-20T01:48:45.683Z,979.10
2019-05-20T01:49:45.574Z,979.14
2019-05-20T01:50:45.525Z,979.12
2019-05-20T01:51:45.431Z,979.10
2019-05-20T01:52:45.324Z,979.12
2019-05-20T01:53:45.235Z,979.09
2019-05-20T01:54:45.153Z,979.13
2019-05-20T01:55:45.062Z,979.17
2019-05-20T01:56:44.969Z,979.16
2019-05-20T01:57:44.885Z,979.19
2019-05-20T01:58:44.791Z,979.22
2019-05-20T01:59:44.724Z,979.21
2019-05-20T02:00:44.637Z,979.20
2019-05-20T02:01:44.545Z,979.17
2019-05-20T02:02:44.459Z,979.15
2019-05-20T02:03:44.357Z,979.13
2019-05-20T02:04:44.293Z,979.11
2019-05-20T02:05:44.182Z,979.14
2019-05-20T02:06:44.092Z,979.12
2019-05-20T02:07:44.029Z,979.09
2019-05-20T02:08:43.932Z,979.10
2019-05-20T02:09:43.840Z,979.11
2019-05-20T02:10:43.743Z,979.10
2019-05-20T02:11:43.675Z,979.13
2019-05-20T02:12:43.593Z,979.14
2019-05-20T02:13:43.483Z,979.16
2019-05-20T02:14:43.393Z,979.11
2019-05-20T02:15:43.295Z,979.08
2019-05-20T02:16:43.215Z,979.09
2019-05-20T02:17:43.152Z,979.06
2019-05-20T02:18:43.036Z,979.04
2019-05-20T02:19:42.976Z,979.04
2019-05-20T02:20:42.877Z,978.99
2019-05-20T02:21:42.783Z,979.00
2019-05-20T02:22:42.705Z,979.02
2019-05-20T02:23:42.600Z,979.00
2019-05-20T02:24:42.518Z,978.98
2019-05-20T02:25:46.564Z,978.98
2019-05-20T02:26:42.360Z,978.94
2019-05-20T02:27:42.262Z,978.94
2019-05-20T02:29:42.122Z,978.91
2019-05-20T02:30:41.990Z,978.88
2019-05-20T02:31:41.902Z,978.91
2019-05-20T02:32:41.839Z,978.90
2019-05-20T02:33:51.664Z,978.93
2019-05-20T02:34:41.678Z,978.94
2019-05-20T02:35:42.583Z,978.95
2019-05-20T02:36:41.475Z,978.98
2019-05-20T02:37:41.399Z,978.97
2019-05-20T02:38:41.311Z,978.95
2019-05-20T02:39:41.222Z,978.99
2019-05-20T02:40:41.111Z,979.00
2019-05-20T02:41:42.036Z,979.03
2019-05-20T02:42:40.959Z,979.05
2019-05-20T02:43:40.859Z,979.08
2019-05-20T02:44:40.755Z,979.06
2019-05-20T02:45:40.677Z,979.09
2019-05-20T02:46:40.585Z,979.07
2019-05-20T02:47:41.525Z,979.09
2019-05-20T02:48:40.470Z,979.07
2019-05-20T02:49:40.339Z,979.05
2019-05-20T02:50:40.251Z,979.08
2019-05-20T02:51:40.135Z,979.05
2019-05-20T02:52:40.072Z,979.04
2019-05-20T02:53:40.989Z,979.06
2019-05-20T02:54:39.915Z,979.05
2019-05-20T02:55:39.785Z,979.05
2019-05-20T02:56:39.732Z,979.04
2019-05-20T02:57:39.613Z,979.05
2019-05-20T02:58:39.523Z,979.07
2019-05-20T02:59:40.447Z,979.01
2019-05-20T03:00:39.376Z,979.06
2019-05-20T03:01:39.270Z,979.01
2019-05-20T03:02:39.187Z,979.03
2019-05-20T03:03:39.103Z,979.01
2019-05-20T03:04:39.012Z,978.99
2019-05-20T03:05:39.924Z,978.99
2019-05-20T03:06:38.818Z,978.96
2019-05-20T03:07:38.763Z,978.99
2019-05-20T03:08:38.652Z,979.00
2019-05-20T03:09:38.560Z,979.00
2019-05-20T03:10:38.472Z,978.99
2019-05-20T03:11:39.393Z,978.97
2019-05-20T03:12:38.296Z,979.00
2019-05-20T03:13:38.208Z,978.98
2019-05-20T03:14:38.127Z,978.99
2019-05-20T03:15:38.022Z,978.95
2019-05-20T03:16:37.946Z,978.97
2019-05-20T03:17:38.867Z,978.96
2019-05-20T03:18:37.775Z,978.98
2019-05-20T03:19:37.725Z,978.94
2019-05-20T03:20:37.610Z,978.95
2019-05-20T03:21:37.516Z,978.98
2019-05-20T03:22:37.427Z,978.97
2019-05-20T03:23:38.397Z,979.01
2019-05-20T03:24:37.234Z,978.99
2019-05-20T03:25:37.169Z,978.97
2019-05-20T03:26:37.067Z,978.96
2019-05-20T03:27:36.994Z,978.95
2019-05-20T03:28:36.875Z,978.90
2019-05-20T03:29:37.813Z,978.91
2019-05-20T03:30:36.747Z,978.89
2019-05-20T03:31:36.660Z,978.91
2019-05-20T03:32:36.583Z,978.91
2019-05-20T03:33:36.473Z,978.92
2019-05-20T03:34:48.042Z,978.93
2019-05-20T03:35:37.289Z,978.93
2019-05-20T03:36:36.206Z,978.91
2019-05-20T03:37:36.114Z,978.88
2019-05-20T03:38:36.004Z,978.89
2019-05-20T03:39:35.928Z,978.90
2019-05-20T03:40:35.830Z,978.86
2019-05-20T03:41:36.912Z,978.83
2019-05-20T03:42:35.665Z,978.83
2019-05-20T03:43:35.570Z,978.81
2019-05-20T03:44:35.495Z,978.88
2019-05-20T03:45:35.416Z,978.85
2019-05-20T03:46:35.316Z,978.89
2019-05-20T03:47:36.235Z,978.91
2019-05-20T03:48:35.136Z,978.90
2019-05-20T03:49:35.043Z,978.88
2019-05-20T03:50:34.971Z,978.92
2019-05-20T03:51:34.867Z,978.91
2019-05-20T03:52:34.789Z,978.94
2019-05-20T03:53:35.699Z,978.93
2019-05-20T03:54:34.597Z,978.92
2019-05-20T03:55:34.522Z,978.96
2019-05-20T03:56:34.443Z,979.01
2019-05-20T03:57:34.391Z,978.99
2019-05-20T03:58:34.288Z,979.01
2019-05-20T03:59:35.177Z,978.98
2019-05-20T04:00:34.080Z,979.00
2019-05-20T04:01:33.992Z,979.01
2019-05-20T04:02:33.905Z,979.04
2019-05-20T04:03:33.817Z,979.04
2019-05-20T04:04:33.717Z,979.06
2019-05-20T04:05:34.638Z,979.03
2019-05-20T04:06:33.554Z,979.02
2019-05-20T04:07:33.456Z,979.02
2019-05-20T04:08:33.395Z,979.02
2019-05-20T04:09:33.305Z,979.02
2019-05-20T04:10:33.219Z,979.02
2019-05-20T04:11:34.140Z,979.03
2019-05-20T04:12:33.031Z,979.01
2019-05-20T04:13:34.812Z,979.02
2019-05-20T04:14:32.841Z,979.06
2019-05-20T04:15:32.758Z,979.06
2019-05-20T04:16:32.668Z,979.07
2019-05-20T04:17:33.614Z,979.10
2019-05-20T04:18:32.508Z,979.04
2019-05-20T04:19:32.406Z,979.04
2019-05-20T04:20:32.326Z,979.03
2019-05-20T04:21:32.247Z,979.04
2019-05-20T04:22:32.170Z,979.02
2019-05-20T04:23:33.082Z,978.98
2019-05-20T04:24:31.968Z,978.98
2019-05-20T04:25:31.896Z,978.94
2019-05-20T04:26:31.798Z,978.95
2019-05-20T04:27:31.704Z,978.96
2019-05-20T04:28:31.636Z,978.96
2019-05-20T04:29:32.543Z,978.93
2019-05-20T04:30:31.456Z,978.95
2019-05-20T04:31:31.361Z,978.93
2019-05-20T04:32:31.268Z,978.93
2019-05-20T04:33:31.195Z,978.96
2019-05-20T04:34:31.100Z,978.91
2019-05-20T04:35:32.013Z,978.90
2019-05-20T04:36:30.925Z,978.91
2019-05-20T04:37:30.857Z,978.92
2019-05-20T04:38:30.766Z,978.90
2019-05-20T04:39:30.657Z,978.89
2019-05-20T04:40:30.569Z,978.90
2019-05-20T04:41:31.512Z,978.90
2019-05-20T04:42:30.408Z,978.89
2019-05-20T04:43:30.313Z,978.88
2019-05-20T04:44:30.218Z,978.93
2019-05-20T04:45:30.147Z,978.91
2019-05-20T04:46:30.062Z,978.89
2019-05-20T04:47:30.972Z,978.89
2019-05-20T04:48:29.868Z,978.91
2019-05-20T04:49:29.792Z,978.94
2019-05-20T04:50:29.719Z,979.00
2019-05-20T04:51:29.614Z,978.97
2019-05-20T04:52:29.522Z,978.94
2019-05-20T04:53:30.444Z,978.97
2019-05-20T04:54:29.437Z,978.95
2019-05-20T04:55:29.291Z,978.94
2019-05-20T04:56:29.559Z,978.91
2019-05-20T04:57:29.115Z,978.95
2019-05-20T04:58:29.087Z,978.95
2019-05-20T04:59:29.931Z,978.92
2019-05-20T05:00:28.826Z,978.89
2019-05-20T05:01:28.741Z,978.86
2019-05-20T05:02:28.680Z,978.90
2019-05-20T05:03:28.589Z,978.90
2019-05-20T05:04:28.486Z,978.96
2019-05-20T05:05:37.655Z,978.91
2019-05-20T05:06:28.305Z,978.89
2019-05-20T05:07:28.223Z,978.91
2019-05-20T05:08:28.136Z,978.88
2019-05-20T05:09:28.047Z,978.91
2019-05-20T05:10:27.974Z,978.93
2019-05-20T05:11:28.884Z,978.93
2019-05-20T05:12:27.780Z,978.95
2019-05-20T05:13:27.717Z,978.98
2019-05-20T05:14:27.610Z,978.97
2019-05-20T05:15:27.520Z,978.99
2019-05-20T05:16:27.439Z,979.00
2019-05-20T05:17:28.371Z,979.01
2019-05-20T05:18:27.281Z,978.97
2019-05-20T05:19:27.195Z,978.98
2019-05-20T05:20:27.104Z,978.99
2019-05-20T05:21:27.010Z,978.95
2019-05-20T05:22:26.936Z,979.02
2019-05-20T05:23:27.849Z,979.00
2019-05-20T05:24:26.759Z,979.07
2019-05-20T05:25:26.658Z,979.06
2019-05-20T05:26:26.579Z,979.08
2019-05-20T05:27:26.498Z,979.09
2019-05-20T05:28:26.411Z,979.08
2019-05-20T05:29:27.331Z,979.09
2019-05-20T05:30:26.227Z,979.10
2019-05-20T05:31:26.138Z,979.10
2019-05-20T05:32:26.055Z,979.15
2019-05-20T05:33:25.975Z,979.09
2019-05-20T05:34:25.885Z,979.13
2019-05-20T05:35:26.818Z,979.15
2019-05-20T05:36:25.711Z,979.11
2019-05-20T05:37:25.629Z,979.11
2019-05-20T05:38:25.547Z,979.11
2019-05-20T05:39:25.465Z,979.14
2019-05-20T05:40:25.359Z,979.12
2019-05-20T05:41:26.286Z,979.09
2019-05-20T05:42:25.213Z,979.12
2019-05-20T05:43:25.121Z,979.13
2019-05-20T05:44:25.025Z,979.12
2019-05-20T05:45:28.607Z,979.11
2019-05-20T05:46:24.855Z,979.12
2019-05-20T05:47:25.793Z,979.14
2019-05-20T05:48:24.740Z,979.14
2019-05-20T05:49:24.599Z,979.10
2019-05-20T05:50:24.517Z,979.12
2019-05-20T05:51:24.426Z,979.15
2019-05-20T05:52:24.329Z,979.13
2019-05-20T05:53:25.255Z,979.13
2019-05-20T05:54:24.157Z,979.15
2019-05-20T05:55:24.080Z,979.14
2019-05-20T05:56:24.003Z,979.14
2019-05-20T05:57:23.893Z,979.16
2019-05-20T05:58:23.814Z,979.14
2019-05-20T05:59:24.751Z,979.21
2019-05-20T06:00:23.736Z,979.16
2019-05-20T06:01:23.557Z,979.20
2019-05-20T06:02:23.465Z,979.19
2019-05-20T06:03:23.384Z,979.21
2019-05-20T06:04:23.299Z,979.21
2019-05-20T06:05:24.222Z,979.18
2019-05-20T06:06:23.124Z,979.19
2019-05-20T06:07:23.032Z,979.21
2019-05-20T06:08:22.981Z,979.19
2019-05-20T06:09:22.869Z,979.20
2019-05-20T06:10:22.770Z,979.23
2019-05-20T06:11:23.693Z,979.27
2019-05-20T06:12:22.601Z,979.23
2019-05-20T06:13:22.536Z,979.26
2019-05-20T06:14:22.442Z,979.21
2019-05-20T06:15:22.343Z,979.20
2019-05-20T06:16:36.008Z,979.17
2019-05-20T06:17:23.189Z,979.17
2019-05-20T06:18:22.101Z,979.18
2019-05-20T06:19:21.996Z,979.12
2019-05-20T06:20:21.912Z,979.18
2019-05-20T06:21:21.823Z,979.20
2019-05-20T06:22:21.743Z,979.25
2019-05-20T06:23:22.658Z,979.26
2019-05-20T06:24:21.582Z,979.26
2019-05-20T06:25:21.483Z,979.28
2019-05-20T06:26:21.404Z,979.28
2019-05-20T06:27:21.320Z,979.24
2019-05-20T06:28:21.239Z,979.24
2019-05-20T06:29:22.148Z,979.25
2019-05-20T06:30:21.071Z,979.26
2019-05-20T06:31:20.974Z,979.26
2019-05-20T06:32:20.890Z,979.29
2019-05-20T06:33:20.794Z,979.25
2019-05-20T06:34:20.712Z,979.26
2019-05-20T06:35:21.624Z,979.26
2019-05-20T06:36:26.913Z,979.28
2019-05-20T06:37:20.448Z,979.32
2019-05-20T06:38:20.371Z,979.28
2019-05-20T06:39:20.286Z,979.29
2019-05-20T06:40:20.180Z,979.30
2019-05-20T06:41:21.116Z,979.27
2019-05-20T06:42:20.095Z,979.29
2019-05-20T06:43:19.927Z,979.22
2019-05-20T06:44:19.848Z,979.24
2019-05-20T06:45:19.760Z,979.26
2019-05-20T06:46:19.693Z,979.28
2019-05-20T06:47:20.610Z,979.28
2019-05-20T06:48:19.506Z,979.29
2019-05-20T06:49:19.448Z,979.28
2019-05-20T06:50:19.341Z,979.33
2019-05-20T06:51:19.249Z,979.33
2019-05-20T06:52:34.923Z,979.35
2019-05-20T06:53:20.137Z,979.35
2019-05-20T06:54:18.988Z,979.39
2019-05-20T06:55:18.908Z,979.39
2019-05-20T06:56:18.838Z,979.42
2019-05-20T06:57:18.734Z,979.45
2019-05-20T06:58:18.645Z,979.46
2019-05-20T06:59:19.581Z,979.48
2019-05-20T07:00:18.478Z,979.51
2019-05-20T07:01:18.387Z,979.50
2019-05-20T07:02:18.305Z,979.52
2019-05-20T07:03:18.245Z,979.53
2019-05-20T07:04:18.149Z,979.59
2019-05-20T07:05:19.062Z,979.60
2019-05-20T07:06:17.953Z,979.56
2019-05-20T07:07:21.311Z,979.58
2019-05-20T07:08:17.826Z,979.57
2019-05-20T07:09:17.703Z,979.63
2019-05-20T07:10:17.639Z,979.61
2019-05-20T07:11:18.543Z,979.65
2019-05-20T07:12:17.463Z,979.67
2019-05-20T07:13:17.373Z,979.69
2019-05-20T07:14:17.300Z,979.67
2019-05-20T07:15:17.197Z,979.70
2019-05-20T07:16:17.140Z,979.70
2019-05-20T07:17:18.059Z,979.67
2019-05-20T07:18:16.941Z,979.73
2019-05-20T07:19:16.873Z,979.73
2019-05-20T07:20:16.785Z,979.73
2019-05-20T07:21:16.780Z,979.72
2019-05-20T07:22:16.591Z,979.69
2019-05-20T07:23:17.525Z,979.65
2019-05-20T07:24:16.463Z,979.68
2019-05-20T07:25:16.373Z,979.68
2019-05-20T07:26:16.256Z,979.70
2019-05-20T07:27:16.165Z,979.72
2019-05-20T07:28:16.091Z,979.71
2019-05-20T07:29:17.013Z,979.69
2019-05-20T07:30:15.942Z,979.74
2019-05-20T07:31:15.855Z,979.66
2019-05-20T07:32:15.754Z,979.67
2019-05-20T07:33:15.679Z,979.66
2019-05-20T07:34:15.580Z,979.66
2019-05-20T07:35:29.337Z,979.66
2019-05-20T07:36:15.417Z,979.65
2019-05-20T07:37:15.318Z,979.65
2019-05-20T07:38:15.244Z,979.63
2019-05-20T07:39:15.169Z,979.65
2019-05-20T07:40:15.072Z,979.65
2019-05-20T07:41:15.997Z,979.69
2019-05-20T07:42:14.932Z,979.65
2019-05-20T07:43:14.805Z,979.68
2019-05-20T07:44:14.762Z,979.67
2019-05-20T07:45:14.638Z,979.69
2019-05-20T07:46:14.555Z,979.63
2019-05-20T07:47:15.481Z,979.65
2019-05-20T07:48:14.398Z,979.61
2019-05-20T07:49:14.323Z,979.62
2019-05-20T07:50:14.222Z,979.63
2019-05-20T07:51:14.143Z,979.59
2019-05-20T07:52:14.067Z,979.65
2019-05-20T07:53:14.991Z,979.62
2019-05-20T07:54:13.883Z,979.62
2019-05-20T07:55:13.821Z,979.57
2019-05-20T07:56:13.704Z,979.63
2019-05-20T07:57:13.682Z,979.61
2019-05-20T07:58:13.568Z,979.57
2019-05-20T07:59:14.464Z,979.59
2019-05-20T08:00:13.404Z,979.57
2019-05-20T08:01:13.307Z,979.60
2019-05-20T08:02:13.208Z,979.63
2019-05-20T08:03:13.134Z,979.64
2019-05-20T08:04:13.033Z,979.62
2019-05-20T08:05:13.960Z,979.60
2019-05-20T08:06:12.871Z,979.58
2019-05-20T08:07:27.483Z,979.57
2019-05-20T08:08:12.745Z,979.58
2019-05-20T08:09:12.644Z,979.54
2019-05-20T08:10:12.536Z,979.55
2019-05-20T08:11:13.550Z,979.59
2019-05-20T08:12:12.410Z,979.60
2019-05-20T08:13:12.291Z,979.55
2019-05-20T08:14:12.202Z,979.60
2019-05-20T08:15:12.131Z,979.55
2019-05-20T08:16:12.042Z,979.53
2019-05-20T08:17:12.963Z,979.53
2019-05-20T08:18:11.876Z,979.54
2019-05-20T08:19:11.790Z,979.54
2019-05-20T08:20:11.690Z,979.55
2019-05-20T08:21:11.628Z,979.62
2019-05-20T08:22:11.534Z,979.63
2019-05-20T08:23:12.482Z,979.61
2019-05-20T08:24:11.356Z,979.58
2019-05-20T08:25:11.283Z,979.61
2019-05-20T08:26:11.206Z,979.60
2019-05-20T08:27:11.140Z,979.64
2019-05-20T08:28:11.044Z,979.61
2019-05-20T08:29:11.955Z,979.62
2019-05-20T08:30:14.019Z,979.60
2019-05-20T08:31:10.801Z,979.60
2019-05-20T08:32:10.696Z,979.58
2019-05-20T08:33:10.635Z,979.58
2019-05-20T08:34:10.525Z,979.58
2019-05-20T08:35:11.455Z,979.61
2019-05-20T08:36:10.372Z,979.60
2019-05-20T08:37:10.277Z,979.60
2019-05-20T08:38:10.225Z,979.60
2019-05-20T08:39:10.115Z,979.59
2019-05-20T08:40:10.032Z,979.61
2019-05-20T08:41:10.951Z,979.60
2019-05-20T08:42:09.894Z,979.62
2019-05-20T08:43:09.965Z,979.68
2019-05-20T08:44:09.691Z,979.69
2019-05-20T08:45:09.611Z,979.68
2019-05-20T08:46:09.550Z,979.66
2019-05-20T08:47:10.448Z,979.63
2019-05-20T08:48:09.385Z,979.64
2019-05-20T08:49:11.162Z,979.64
2019-05-20T08:50:14.024Z,979.64
2019-05-20T08:51:09.107Z,979.61
2019-05-20T08:52:09.031Z,979.61
2019-05-20T08:53:09.957Z,979.57
2019-05-20T08:54:08.858Z,979.54
2019-05-20T08:55:08.789Z,979.52
2019-05-20T08:56:08.796Z,979.52
2019-05-20T08:57:08.613Z,979.51
2019-05-20T08:58:08.554Z,979.50
2019-05-20T08:59:09.455Z,979.58
2019-05-20T09:00:08.354Z,979.57
2019-05-20T09:01:09.799Z,979.55
2019-05-20T09:02:08.195Z,979.61
2019-05-20T09:03:08.112Z,979.58
2019-05-20T09:04:08.023Z,979.57
2019-05-20T09:05:08.956Z,979.59
2019-05-20T09:06:07.860Z,979.59
2019-05-20T09:07:07.771Z,979.60
2019-05-20T09:08:07.727Z,979.59
2019-05-20T09:09:07.627Z,979.59
2019-05-20T09:10:07.543Z,979.56
2019-05-20T09:11:08.466Z,979.52
2019-05-20T09:12:07.370Z,979.52
2019-05-20T09:13:07.284Z,979.53
2019-05-20T09:14:07.271Z,979.55
2019-05-20T09:15:07.164Z,979.52
2019-05-20T09:16:07.033Z,979.54
2019-05-20T09:17:07.970Z,979.58
2019-05-20T09:18:06.866Z,979.63
2019-05-20T09:19:06.798Z,979.58
2019-05-20T09:20:06.721Z,979.53
2019-05-20T09:21:06.667Z,979.50
2019-05-20T09:22:06.544Z,979.53
2019-05-20T09:23:07.471Z,979.51
2019-05-20T09:24:06.375Z,979.48
2019-05-20T09:25:06.349Z,979.55
2019-05-20T09:26:06.202Z,979.54
2019-05-20T09:27:06.171Z,979.47
2019-05-20T09:28:06.137Z,979.44
2019-05-20T09:29:11.047Z,979.48
2019-05-20T09:30:05.881Z,979.38
2019-05-20T09:31:05.787Z,979.41
2019-05-20T09:32:05.733Z,979.37
2019-05-20T09:33:05.638Z,979.33
2019-05-20T09:34:05.560Z,979.31
2019-05-20T09:35:06.478Z,979.32
2019-05-20T09:36:05.374Z,979.33
2019-05-20T09:37:05.307Z,979.35
2019-05-20T09:38:18.255Z,979.37
2019-05-20T09:39:05.133Z,979.33
2019-05-20T09:40:05.070Z,979.30
2019-05-20T09:41:05.980Z,979.33
2019-05-20T09:42:04.906Z,979.32
2019-05-20T09:43:04.825Z,979.36
2019-05-20T09:44:04.724Z,979.34
2019-05-20T09:45:04.748Z,979.29
2019-05-20T09:46:07.990Z,979.32
2019-05-20T09:47:05.490Z,979.32
2019-05-20T09:48:04.458Z,979.34
2019-05-20T09:49:04.312Z,979.38
2019-05-20T09:50:04.251Z,979.39
2019-05-20T09:51:04.171Z,979.38
2019-05-20T09:52:04.068Z,979.40
2019-05-20T09:53:07.020Z,979.39
2019-05-20T09:54:03.936Z,979.38
2019-05-20T09:55:03.815Z,979.34
2019-05-20T09:56:03.737Z,979.36
2019-05-20T09:57:03.645Z,979.32
2019-05-20T09:58:03.580Z,979.33
2019-05-20T09:59:04.502Z,979.34
2019-05-20T10:00:03.426Z,979.41
2019-05-20T10:01:03.329Z,979.42
2019-05-20T10:02:03.269Z,979.38
2019-05-20T10:03:03.377Z,979.40
2019-05-20T10:04:03.092Z,979.43
2019-05-20T10:05:04.145Z,979.41
2019-05-20T10:06:03.051Z,979.37
2019-05-20T10:07:02.893Z,979.35
2019-05-20T10:08:02.778Z,979.34
2019-05-20T10:09:02.676Z,979.36
2019-05-20T10:10:02.580Z,979.34
2019-05-20T10:11:03.534Z,979.39
2019-05-20T10:12:02.436Z,979.37
2019-05-20T10:13:02.359Z,979.37
2019-05-20T10:14:02.286Z,979.42
2019-05-20T10:15:02.197Z,979.39
2019-05-20T10:16:02.101Z,979.41
2019-05-20T10:17:03.204Z,979.43
2019-05-20T10:18:01.936Z,979.39
2019-05-20T10:19:01.842Z,979.39
2019-05-20T10:20:01.767Z,979.35
2019-05-20T10:21:01.706Z,979.33
2019-05-20T10:22:01.607Z,979.33
2019-05-20T10:23:02.559Z,979.38
2019-05-20T10:24:01.511Z,979.35
2019-05-20T10:25:01.358Z,979.34
2019-05-20T10:26:01.276Z,979.36
2019-05-20T10:27:01.229Z,979.34
2019-05-20T10:28:01.117Z,979.31
2019-05-20T10:29:02.050Z,979.29
2019-05-20T10:30:00.966Z,979.23
2019-05-20T10:31:00.870Z,979.27
2019-05-20T10:32:00.776Z,979.26
2019-05-20T10:33:00.715Z,979.34
2019-05-20T10:34:01.532Z,979.29
2019-05-20T10:35:01.550Z,979.27
2019-05-20T10:36:00.449Z,979.32
2019-05-20T10:37:00.428Z,979.37
2019-05-20T10:38:00.400Z,979.32
2019-05-20T10:39:00.290Z,979.33
2019-05-20T10:40:00.160Z,979.32
2019-05-20T10:41:01.053Z,979.35
2019-05-20T10:41:59.961Z,979.35
2019-05-20T10:42:59.890Z,979.41
2019-05-20T10:43:59.805Z,979.39
2019-05-20T10:44:59.726Z,979.44
2019-05-20T10:45:59.731Z,979.42
2019-05-20T10:47:00.571Z,979.45
2019-05-20T10:47:59.493Z,979.50
2019-05-20T10:48:59.406Z,979.46
2019-05-20T10:49:59.339Z,979.53
2019-05-20T10:50:59.232Z,979.52
2019-05-20T10:51:59.144Z,979.57
2019-05-20T10:53:00.112Z,979.53
2019-05-20T10:53:58.989Z,979.52
2019-05-20T10:54:58.903Z,979.48
2019-05-20T10:55:59.182Z,979.45
2019-05-20T10:56:59.743Z,979.46
2019-05-20T10:57:58.657Z,979.44
2019-05-20T10:58:59.580Z,979.42
2019-05-20T10:59:58.505Z,979.43
2019-05-20T11:01:03.450Z,979.45
2019-05-20T11:01:58.334Z,979.47
2019-05-20T11:02:58.244Z,979.49
2019-05-20T11:03:58.160Z,979.44
2019-05-20T11:04:59.106Z,979.47
2019-05-20T11:05:58.017Z,979.50
2019-05-20T11:06:57.918Z,979.44
2019-05-20T11:07:57.959Z,979.48
2019-05-20T11:09:12.887Z,979.48
2019-05-20T11:09:57.789Z,979.44
2019-05-20T11:10:58.613Z,979.43
2019-05-20T11:11:57.526Z,979.40
2019-05-20T11:12:57.460Z,979.35
2019-05-20T11:13:57.361Z,979.31
2019-05-20T11:14:57.276Z,979.29
2019-05-20T11:15:57.187Z,979.30
2019-05-20T11:16:58.134Z,979.31
2019-05-20T11:17:57.034Z,979.35
2019-05-20T11:18:56.941Z,979.34
2019-05-20T11:19:56.866Z,979.37
2019-05-20T11:20:56.778Z,979.34
2019-05-20T11:21:56.721Z,979.33
2019-05-20T11:23:00.849Z,979.40
2019-05-20T11:23:56.534Z,979.37
2019-05-20T11:24:56.463Z,979.28
2019-05-20T11:25:56.367Z,979.27
2019-05-20T11:26:56.293Z,979.25
2019-05-20T11:27:56.214Z,979.27
2019-05-20T11:28:57.138Z,979.28
2019-05-20T11:29:56.048Z,979.23
2019-05-20T11:30:55.958Z,979.25
2019-05-20T11:31:55.898Z,979.23
2019-05-20T11:32:55.792Z,979.18
2019-05-20T11:33:57.646Z,979.21
2019-05-20T11:34:56.640Z,979.19
2019-05-20T11:35:55.550Z,979.23
2019-05-20T11:36:55.463Z,979.17
2019-05-20T11:37:55.382Z,979.18
2019-05-20T11:38:55.299Z,979.17
2019-05-20T11:39:55.223Z,979.16
2019-05-20T11:40:56.150Z,979.19
2019-05-20T11:41:55.063Z,979.13
2019-05-20T11:42:54.973Z,979.13
2019-05-20T11:43:54.907Z,979.11
2019-05-20T11:44:54.823Z,979.06
2019-05-20T11:45:54.745Z,979.07
2019-05-20T11:46:55.664Z,979.06
2019-05-20T11:47:54.569Z,979.01
2019-05-20T11:48:54.503Z,979.07
2019-05-20T11:49:54.423Z,979.04
2019-05-20T11:50:54.327Z,979.04
2019-05-20T11:51:54.238Z,979.12
2019-05-20T11:52:55.175Z,979.09
2019-05-20T11:53:54.088Z,979.07
2019-05-20T11:54:54.001Z,979.10
2019-05-20T11:55:53.916Z,979.07
2019-05-20T11:56:53.825Z,979.09
2019-05-20T11:57:53.756Z,979.08
2019-05-20T11:58:54.682Z,979.02
2019-05-20T11:59:53.590Z,978.97
2019-05-20T12:00:53.575Z,979.01
2019-05-20T12:01:53.424Z,978.97
2019-05-20T12:02:53.390Z,978.96
2019-05-20T12:03:53.254Z,978.98
2019-05-20T12:04:54.223Z,978.94
2019-05-20T12:05:53.111Z,978.93
2019-05-20T12:06:53.032Z,978.87
2019-05-20T12:07:52.943Z,978.87
2019-05-20T12:08:52.856Z,978.90
2019-05-20T12:09:52.778Z,978.95
2019-05-20T12:10:53.692Z,978.92
2019-05-20T12:11:52.615Z,978.92
2019-05-20T12:12:52.542Z,978.88
2019-05-20T12:13:52.461Z,978.87
2019-05-20T12:14:52.375Z,978.85
2019-05-20T12:15:52.285Z,978.88
2019-05-20T12:16:53.227Z,978.86
2019-05-20T12:17:52.119Z,978.82
2019-05-20T12:18:52.037Z,978.84
2019-05-20T12:19:51.967Z,978.85
2019-05-20T12:20:51.884Z,978.82
2019-05-20T12:21:51.790Z,978.81
2019-05-20T12:22:52.728Z,978.70
2019-05-20T12:23:51.664Z,978.67
2019-05-20T12:24:51.872Z,978.70
2019-05-20T12:25:51.471Z,978.73
2019-05-20T12:26:51.385Z,978.72
2019-05-20T12:27:51.311Z,978.70
2019-05-20T12:28:52.251Z,978.71